sensor_id;sensor_type;location;lat;lon;timestamp;pressure;altitude;pressure_sealevel;temperature;humidity
39265;BME280;42646;51.910;7.724;2023-04-08T00:01:50;101583.00;;;3.72;100.00
39265;BME280;42646;51.910;7.724;2023-04-08T00:04:18;101583.06;;;3.71;100.00
39265;BME280;42646;51.910;7.724;2023-04-08T00:06:47;101589.28;;;3.70;100.00
39265;BME280;42646;51.910;7.724;2023-04-08T00:09:15;101584.09;;;3.68;100.00
39265;BME280;42646;51.910;7.724;2023-04-08T00:11:44;101582.44;;;3.66;100.00
39265;BME280;42646;51.910;7.724;2023-04-08T00:14:12;101579.13;;;3.62;100.00
39265;BME280;42646;51.910;7.724;2023-04-08T00:16:39;101577.47;;;3.60;100.00
39265;BME280;42646;51.910;7.724;2023-04-08T00:19:08;101578.47;;;3.57;100.00
39265;BME280;42646;51.910;7.724;2023-04-08T00:21:36;101589.13;;;3.54;100.00
39265;BME280;42646;51.910;7.724;2023-04-08T00:24:05;101583.16;;;3.51;100.00
39265;BME280;42646;51.910;7.724;2023-04-08T00:26:33;101584.13;;;3.48;100.00
39265;BME280;42646;51.910;7.724;2023-04-08T00:29:02;101586.06;;;3.44;100.00
39265;BME280;42646;51.910;7.724;2023-04-08T00:31:31;101587.97;;;3.41;100.00
39265;BME280;42646;51.910;7.724;2023-04-08T00:33:59;101590.81;;;3.36;100.00
39265;BME280;42646;51.910;7.724;2023-04-08T00:36:27;101592.75;;;3.33;100.00
39265;BME280;42646;51.910;7.724;2023-04-08T00:38:55;101592.00;;;3.29;100.00
39265;BME280;42646;51.910;7.724;2023-04-08T00:41:23;101593.13;;;3.24;100.00
39265;BME280;42646;51.910;7.724;2023-04-08T00:43:51;101593.28;;;3.20;100.00
39265;BME280;42646;51.910;7.724;2023-04-08T00:46:21;101594.34;;;3.16;100.00
39265;BME280;42646;51.910;7.724;2023-04-08T00:48:54;101600.66;;;3.12;100.00
39265;BME280;42646;51.910;7.724;2023-04-08T00:51:22;101599.94;;;3.09;100.00
39265;BME280;42646;51.910;7.724;2023-04-08T00:53:50;101607.16;;;3.04;100.00
39265;BME280;42646;51.910;7.724;2023-04-08T00:56:20;101610.00;;;2.99;100.00
39265;BME280;42646;51.910;7.724;2023-04-08T00:58:48;101615.44;;;2.94;100.00
39265;BME280;42646;51.910;7.724;2023-04-08T01:01:27;101618.25;;;2.90;100.00
39265;BME280;42646;51.910;7.724;2023-04-08T01:04:06;101607.03;;;2.86;100.00
39265;BME280;42646;51.910;7.724;2023-04-08T01:06:39;101612.41;;;2.83;100.00
39265;BME280;42646;51.910;7.724;2023-04-08T01:09:08;101609.19;;;2.77;100.00
39265;BME280;42646;51.910;7.724;2023-04-08T01:11:41;101612.81;;;2.74;100.00
39265;BME280;42646;51.910;7.724;2023-04-08T01:14:16;101614.72;;;2.71;100.00
39265;BME280;42646;51.910;7.724;2023-04-08T01:16:48;101615.72;;;2.68;100.00
39265;BME280;42646;51.910;7.724;2023-04-08T01:19:21;101604.53;;;2.63;100.00
39265;BME280;42646;51.910;7.724;2023-04-08T01:21:59;101609.00;;;2.61;100.00
39265;BME280;42646;51.910;7.724;2023-04-08T01:24:35;101608.34;;;2.56;100.00
39265;BME280;42646;51.910;7.724;2023-04-08T01:27:09;101604.91;;;2.54;100.00
39265;BME280;42646;51.910;7.724;2023-04-08T01:29:38;101611.16;;;2.51;100.00
39265;BME280;42646;51.910;7.724;2023-04-08T01:32:08;101610.41;;;2.48;100.00
39265;BME280;42646;51.910;7.724;2023-04-08T01:34:37;101614.03;;;2.45;100.00
39265;BME280;42646;51.910;7.724;2023-04-08T01:37:07;101621.97;;;2.44;100.00
39265;BME280;42646;51.910;7.724;2023-04-08T01:39:37;101621.22;;;2.40;100.00
39265;BME280;42646;51.910;7.724;2023-04-08T01:42:08;101627.41;;;2.39;100.00
39265;BME280;42646;51.910;7.724;2023-04-08T01:44:37;101633.63;;;2.36;100.00
39265;BME280;42646;51.910;7.724;2023-04-08T01:47:08;101620.63;;;2.33;100.00
39265;BME280;42646;51.910;7.724;2023-04-08T01:49:37;101627.75;;;2.30;100.00
39265;BME280;42646;51.910;7.724;2023-04-08T01:52:05;101628.81;;;2.26;100.00
39265;BME280;42646;51.910;7.724;2023-04-08T01:54:36;101629.78;;;2.23;100.00
39265;BME280;42646;51.910;7.724;2023-04-08T01:57:04;101638.66;;;2.21;100.00
39265;BME280;42646;51.910;7.724;2023-04-08T01:59:37;101636.13;;;2.18;100.00
39265;BME280;42646;51.910;7.724;2023-04-08T02:02:08;101636.19;;;2.16;100.00
39265;BME280;42646;51.910;7.724;2023-04-08T02:04:38;101640.66;;;2.14;100.00
39265;BME280;42646;51.910;7.724;2023-04-08T02:07:06;101634.66;;;2.10;100.00
39265;BME280;42646;51.910;7.724;2023-04-08T02:09:34;101637.41;;;2.07;100.00
39265;BME280;42646;51.910;7.724;2023-04-08T02:12:02;101633.13;;;2.05;100.00
39265;BME280;42646;51.910;7.724;2023-04-08T02:14:30;101637.63;;;2.01;100.00
39265;BME280;42646;51.910;7.724;2023-04-08T02:17:05;101642.16;;;1.98;100.00
39265;BME280;42646;51.910;7.724;2023-04-08T02:19:40;101643.13;;;1.95;100.00
39265;BME280;42646;51.910;7.724;2023-04-08T02:22:16;101638.84;;;1.93;100.00
39265;BME280;42646;51.910;7.724;2023-04-08T02:24:45;101642.47;;;1.90;100.00
39265;BME280;42646;51.910;7.724;2023-04-08T02:27:14;101636.41;;;1.88;100.00
39265;BME280;42646;51.910;7.724;2023-04-08T02:29:44;101642.63;;;1.85;100.00
39265;BME280;42646;51.910;7.724;2023-04-08T02:32:14;101647.06;;;1.83;100.00
39265;BME280;42646;51.910;7.724;2023-04-08T02:34:44;101640.13;;;1.82;100.00
39265;BME280;42646;51.910;7.724;2023-04-08T02:37:14;101646.41;;;1.78;100.00
39265;BME280;42646;51.910;7.724;2023-04-08T02:39:43;101657.00;;;1.75;100.00
39265;BME280;42646;51.910;7.724;2023-04-08T02:42:12;101652.78;;;1.71;100.00
39265;BME280;42646;51.910;7.724;2023-04-08T02:44:40;101648.50;;;1.69;100.00
39265;BME280;42646;51.910;7.724;2023-04-08T02:47:08;101648.63;;;1.66;100.00
39265;BME280;42646;51.910;7.724;2023-04-08T02:49:37;101655.69;;;1.64;100.00
39265;BME280;42646;51.910;7.724;2023-04-08T02:52:05;101654.91;;;1.62;100.00
39265;BME280;42646;51.910;7.724;2023-04-08T02:54:32;101657.53;;;1.62;100.00
39265;BME280;42646;51.910;7.724;2023-04-08T02:57:02;101661.06;;;1.60;100.00
39265;BME280;42646;51.910;7.724;2023-04-08T02:59:30;101661.09;;;1.59;100.00
39265;BME280;42646;51.910;7.724;2023-04-08T03:01:58;101664.63;;;1.58;100.00
39265;BME280;42646;51.910;7.724;2023-04-08T03:04:26;101662.94;;;1.57;100.00
39265;BME280;42646;51.910;7.724;2023-04-08T03:06:55;101664.63;;;1.58;100.00
39265;BME280;42646;51.910;7.724;2023-04-08T03:09:23;101658.47;;;1.59;100.00
39265;BME280;42646;51.910;7.724;2023-04-08T03:11:50;101656.72;;;1.59;100.00
39265;BME280;42646;51.910;7.724;2023-04-08T03:14:20;101664.53;;;1.61;100.00
39265;BME280;42646;51.910;7.724;2023-04-08T03:16:48;101662.72;;;1.63;100.00
39265;BME280;42646;51.910;7.724;2023-04-08T03:19:17;101666.97;;;1.66;100.00
39265;BME280;42646;51.910;7.724;2023-04-08T03:21:45;101667.78;;;1.68;100.00
39265;BME280;42646;51.910;7.724;2023-04-08T03:24:14;101663.28;;;1.71;100.00
39265;BME280;42646;51.910;7.724;2023-04-08T03:26:42;101664.09;;;1.73;100.00
39265;BME280;42646;51.910;7.724;2023-04-08T03:29:10;101665.66;;;1.77;100.00
39265;BME280;42646;51.910;7.724;2023-04-08T03:31:38;101662.09;;;1.80;100.00
39265;BME280;42646;51.910;7.724;2023-04-08T03:34:06;101661.97;;;1.83;100.00
39265;BME280;42646;51.910;7.724;2023-04-08T03:36:34;101661.78;;;1.87;100.00
39265;BME280;42646;51.910;7.724;2023-04-08T03:39:02;101660.84;;;1.90;100.00
39265;BME280;42646;51.910;7.724;2023-04-08T03:41:31;101670.25;;;1.96;100.00
39265;BME280;42646;51.910;7.724;2023-04-08T03:43:58;101661.31;;;2.00;100.00
39265;BME280;42646;51.910;7.724;2023-04-08T03:46:26;101667.31;;;2.03;100.00
39265;BME280;42646;51.910;7.724;2023-04-08T03:48:55;101669.81;;;2.06;100.00
39265;BME280;42646;51.910;7.724;2023-04-08T03:51:23;101666.16;;;2.10;100.00
39265;BME280;42646;51.910;7.724;2023-04-08T03:53:51;101663.44;;;2.13;100.00
39265;BME280;42646;51.910;7.724;2023-04-08T03:56:19;101667.63;;;2.18;100.00
39265;BME280;42646;51.910;7.724;2023-04-08T03:58:48;101664.03;;;2.20;100.00
39265;BME280;42646;51.910;7.724;2023-04-08T04:01:42;101671.72;;;2.25;100.00
39265;BME280;42646;51.910;7.724;2023-04-08T04:04:09;101675.09;;;2.28;100.00
39265;BME280;42646;51.910;7.724;2023-04-08T04:06:39;101674.91;;;2.33;100.00
39265;BME280;42646;51.910;7.724;2023-04-08T04:09:07;101667.72;;;2.38;100.00
39265;BME280;42646;51.910;7.724;2023-04-08T04:11:35;101670.13;;;2.42;100.00
39265;BME280;42646;51.910;7.724;2023-04-08T04:14:07;101671.72;;;2.47;100.00
39265;BME280;42646;51.910;7.724;2023-04-08T04:16:35;101665.44;;;2.51;100.00
39265;BME280;42646;51.910;7.724;2023-04-08T04:19:02;101669.59;;;2.56;100.00
39265;BME280;42646;51.910;7.724;2023-04-08T04:21:31;101674.72;;;2.59;100.00
39265;BME280;42646;51.910;7.724;2023-04-08T04:23:58;101672.91;;;2.61;100.00
39265;BME280;42646;51.910;7.724;2023-04-08T04:26:26;101680.72;;;2.63;100.00
39265;BME280;42646;51.910;7.724;2023-04-08T04:28:54;101687.59;;;2.65;100.00
39265;BME280;42646;51.910;7.724;2023-04-08T04:31:24;101675.28;;;2.67;100.00
39265;BME280;42646;51.910;7.724;2023-04-08T04:33:53;101683.00;;;2.71;100.00
39265;BME280;42646;51.910;7.724;2023-04-08T04:36:21;101678.63;;;2.71;100.00
39265;BME280;42646;51.910;7.724;2023-04-08T04:38:50;101690.78;;;2.74;100.00
39265;BME280;42646;51.910;7.724;2023-04-08T04:41:18;101683.69;;;2.76;100.00
39265;BME280;42646;51.910;7.724;2023-04-08T04:43:47;101687.09;;;2.78;100.00
39265;BME280;42646;51.910;7.724;2023-04-08T04:46:14;101693.09;;;2.81;100.00
39265;BME280;42646;51.910;7.724;2023-04-08T04:48:43;101699.09;;;2.85;100.00
39265;BME280;42646;51.910;7.724;2023-04-08T04:51:11;101702.50;;;2.87;100.00
39265;BME280;42646;51.910;7.724;2023-04-08T04:53:38;101696.22;;;2.91;100.00
39265;BME280;42646;51.910;7.724;2023-04-08T04:56:06;101703.16;;;2.92;100.00
39265;BME280;42646;51.910;7.724;2023-04-08T04:58:34;101707.34;;;2.96;100.00
39265;BME280;42646;51.910;7.724;2023-04-08T05:01:01;101706.38;;;2.99;100.00
39265;BME280;42646;51.910;7.724;2023-04-08T05:03:30;101707.97;;;3.03;100.00
39265;BME280;42646;51.910;7.724;2023-04-08T05:06:02;101709.63;;;3.05;100.00
39265;BME280;42646;51.910;7.724;2023-04-08T05:08:30;101699.03;;;3.07;100.00
39265;BME280;42646;51.910;7.724;2023-04-08T05:10:58;101700.63;;;3.11;100.00
39265;BME280;42646;51.910;7.724;2023-04-08T05:13:27;101695.22;;;3.14;100.00
39265;BME280;42646;51.910;7.724;2023-04-08T05:15:55;101696.03;;;3.16;100.00
39265;BME280;42646;51.910;7.724;2023-04-08T05:18:22;101701.13;;;3.19;100.00
39265;BME280;42646;51.910;7.724;2023-04-08T05:20:56;101706.22;;;3.24;100.00
39265;BME280;42646;51.910;7.724;2023-04-08T05:23:26;101712.25;;;3.26;100.00
39265;BME280;42646;51.910;7.724;2023-04-08T05:25:54;101714.59;;;3.32;100.00
39265;BME280;42646;51.910;7.724;2023-04-08T05:28:22;101711.94;;;3.33;100.00
39265;BME280;42646;51.910;7.724;2023-04-08T05:30:52;101716.97;;;3.38;100.00
39265;BME280;42646;51.910;7.724;2023-04-08T05:33:19;101728.22;;;3.41;100.00
39265;BME280;42646;51.910;7.724;2023-04-08T05:35:48;101728.13;;;3.44;100.00
39265;BME280;42646;51.910;7.724;2023-04-08T05:38:15;101720.06;;;3.47;100.00
39265;BME280;42646;51.910;7.724;2023-04-08T05:40:45;101727.00;;;3.50;100.00
39265;BME280;42646;51.910;7.724;2023-04-08T05:43:13;101733.88;;;3.53;100.00
39265;BME280;42646;51.910;7.724;2023-04-08T05:45:41;101727.63;;;3.55;100.00
39265;BME280;42646;51.910;7.724;2023-04-08T05:48:10;101734.53;;;3.58;100.00
39265;BME280;42646;51.910;7.724;2023-04-08T05:51:04;101740.47;;;3.63;100.00
39265;BME280;42646;51.910;7.724;2023-04-08T05:53:33;101741.16;;;3.66;100.00
39265;BME280;42646;51.910;7.724;2023-04-08T05:56:03;101736.56;;;3.71;100.00
39265;BME280;42646;51.910;7.724;2023-04-08T05:58:31;101742.56;;;3.75;100.00
39265;BME280;42646;51.910;7.724;2023-04-08T06:00:59;101744.91;;;3.81;100.00
39265;BME280;42646;51.910;7.724;2023-04-08T06:03:27;101742.00;;;3.87;100.00
39265;BME280;42646;51.910;7.724;2023-04-08T06:05:56;101743.50;;;3.93;100.00
39265;BME280;42646;51.910;7.724;2023-04-08T06:08:24;101752.75;;;4.01;100.00
39265;BME280;42646;51.910;7.724;2023-04-08T06:10:53;101756.91;;;4.07;100.00
39265;BME280;42646;51.910;7.724;2023-04-08T06:13:25;101757.41;;;4.15;100.00
39265;BME280;42646;51.910;7.724;2023-04-08T06:15:53;101763.19;;;4.23;100.00
39265;BME280;42646;51.910;7.724;2023-04-08T06:18:21;101759.41;;;4.29;100.00
39265;BME280;42646;51.910;7.724;2023-04-08T06:20:50;101761.69;;;4.37;100.00
39265;BME280;42646;51.910;7.724;2023-04-08T06:23:18;101763.09;;;4.44;100.00
39265;BME280;42646;51.910;7.724;2023-04-08T06:25:46;101775.13;;;4.49;100.00
39265;BME280;42646;51.910;7.724;2023-04-08T06:28:15;101772.22;;;4.55;100.00
39265;BME280;42646;51.910;7.724;2023-04-08T06:30:44;101778.97;;;4.61;100.00
39265;BME280;42646;51.910;7.724;2023-04-08T06:33:12;101779.69;;;4.65;100.00
39265;BME280;42646;51.910;7.724;2023-04-08T06:35:39;101786.53;;;4.69;100.00
39265;BME280;42646;51.910;7.724;2023-04-08T06:38:07;101779.31;;;4.72;100.00
39265;BME280;42646;51.910;7.724;2023-04-08T06:40:37;101780.91;;;4.76;100.00
39265;BME280;42646;51.910;7.724;2023-04-08T06:43:07;101786.72;;;4.83;100.00
39265;BME280;42646;51.910;7.724;2023-04-08T06:45:40;101782.09;;;4.88;100.00
39265;BME280;42646;51.910;7.724;2023-04-08T06:48:10;101791.56;;;4.92;100.00
39265;BME280;42646;51.910;7.724;2023-04-08T06:50:39;101790.34;;;4.99;100.00
39265;BME280;42646;51.910;7.724;2023-04-08T06:53:06;101799.66;;;5.06;100.00
39265;BME280;42646;51.910;7.724;2023-04-08T06:55:34;101794.84;;;5.15;100.00
39265;BME280;42646;51.910;7.724;2023-04-08T06:58:02;101796.28;;;5.22;100.00
39265;BME280;42646;51.910;7.724;2023-04-08T07:00:29;101802.94;;;5.29;100.00
39265;BME280;42646;51.910;7.724;2023-04-08T07:02:57;101795.56;;;5.35;100.00
39265;BME280;42646;51.910;7.724;2023-04-08T07:05:26;101798.75;;;5.42;100.00
39265;BME280;42646;51.910;7.724;2023-04-08T07:07:54;101800.16;;;5.49;100.00
39265;BME280;42646;51.910;7.724;2023-04-08T07:10:22;101801.63;;;5.55;100.00
39265;BME280;42646;51.910;7.724;2023-04-08T07:12:49;101804.88;;;5.60;100.00
39265;BME280;42646;51.910;7.724;2023-04-08T07:15:18;101816.94;;;5.66;100.00
39265;BME280;42646;51.910;7.724;2023-04-08T07:17:46;101819.34;;;5.70;100.00
39265;BME280;42646;51.910;7.724;2023-04-08T07:20:14;101807.66;;;5.74;100.00
39265;BME280;42646;51.910;7.724;2023-04-08T07:22:43;101809.22;;;5.78;100.00
39265;BME280;42646;51.910;7.724;2023-04-08T07:25:11;101815.22;;;5.82;100.00
39265;BME280;42646;51.910;7.724;2023-04-08T07:27:39;101813.25;;;5.85;100.00
39265;BME280;42646;51.910;7.724;2023-04-08T07:30:08;101813.09;;;5.88;100.00
39265;BME280;42646;51.910;7.724;2023-04-08T07:32:35;101820.75;;;5.95;100.00
39265;BME280;42646;51.910;7.724;2023-04-08T07:35:04;101824.00;;;6.00;100.00
39265;BME280;42646;51.910;7.724;2023-04-08T07:37:34;101821.09;;;6.04;100.00
39265;BME280;42646;51.910;7.724;2023-04-08T07:40:04;101834.06;;;6.09;100.00
39265;BME280;42646;51.910;7.724;2023-04-08T07:42:32;101833.06;;;6.11;100.00
39265;BME280;42646;51.910;7.724;2023-04-08T07:45:00;101824.97;;;6.14;100.00
39265;BME280;42646;51.910;7.724;2023-04-08T07:47:28;101828.22;;;6.20;100.00
39265;BME280;42646;51.910;7.724;2023-04-08T07:49:56;101831.47;;;6.25;100.00
39265;BME280;42646;51.910;7.724;2023-04-08T07:52:24;101836.59;;;6.28;100.00
39265;BME280;42646;51.910;7.724;2023-04-08T07:54:51;101842.47;;;6.33;100.00
39265;BME280;42646;51.910;7.724;2023-04-08T07:57:21;101841.31;;;6.38;100.00
39265;BME280;42646;51.910;7.724;2023-04-08T07:59:49;101840.97;;;6.45;100.00
39265;BME280;42646;51.910;7.724;2023-04-08T08:02:18;101850.22;;;6.53;100.00
39265;BME280;42646;51.910;7.724;2023-04-08T08:04:46;101857.72;;;6.61;100.00
39265;BME280;42646;51.910;7.724;2023-04-08T08:07:14;101857.38;;;6.67;100.00
39265;BME280;42646;51.910;7.724;2023-04-08T08:09:41;101857.81;;;6.75;100.00
39265;BME280;42646;51.910;7.724;2023-04-08T08:12:09;101860.91;;;6.83;100.00
39265;BME280;42646;51.910;7.724;2023-04-08T08:14:38;101859.53;;;6.92;100.00
39265;BME280;42646;51.910;7.724;2023-04-08T08:17:07;101864.38;;;7.00;100.00
39265;BME280;42646;51.910;7.724;2023-04-08T08:19:35;101864.06;;;7.06;100.00
39265;BME280;42646;51.910;7.724;2023-04-08T08:22:02;101859.53;;;7.08;100.00
39265;BME280;42646;51.910;7.724;2023-04-08T08:24:30;101863.78;;;7.10;100.00
39265;BME280;42646;51.910;7.724;2023-04-08T08:26:58;101867.13;;;7.14;100.00
39265;BME280;42646;51.910;7.724;2023-04-08T08:29:26;101863.38;;;7.18;100.00
39265;BME280;42646;51.910;7.724;2023-04-08T08:31:55;101870.19;;;7.22;100.00
39265;BME280;42646;51.910;7.724;2023-04-08T08:34:23;101876.16;;;7.26;100.00
39265;BME280;42646;51.910;7.724;2023-04-08T08:36:51;101884.00;;;7.27;100.00
39265;BME280;42646;51.910;7.724;2023-04-08T08:39:18;101876.50;;;7.35;100.00
39265;BME280;42646;51.910;7.724;2023-04-08T08:41:47;101881.44;;;7.41;100.00
39265;BME280;42646;51.910;7.724;2023-04-08T08:44:15;101878.47;;;7.47;100.00
39265;BME280;42646;51.910;7.724;2023-04-08T08:46:43;101889.34;;;7.57;100.00
39265;BME280;42646;51.910;7.724;2023-04-08T08:49:13;101882.00;;;7.62;100.00
39265;BME280;42646;51.910;7.724;2023-04-08T08:51:42;101895.06;;;7.65;100.00
39265;BME280;42646;51.910;7.724;2023-04-08T08:54:13;101888.72;;;7.68;100.00
39265;BME280;42646;51.910;7.724;2023-04-08T08:56:41;101895.56;;;7.72;100.00
39265;BME280;42646;51.910;7.724;2023-04-08T08:59:09;101892.06;;;7.71;100.00
39265;BME280;42646;51.910;7.724;2023-04-08T09:01:41;101899.91;;;7.73;100.00
39265;BME280;42646;51.910;7.724;2023-04-08T09:04:10;101902.38;;;7.76;100.00
39265;BME280;42646;51.910;7.724;2023-04-08T09:06:41;101910.50;;;7.73;100.00
39265;BME280;42646;51.910;7.724;2023-04-08T09:09:09;101905.13;;;7.74;100.00
39265;BME280;42646;51.910;7.724;2023-04-08T09:11:38;101901.72;;;7.72;100.00
39265;BME280;42646;51.910;7.724;2023-04-08T09:14:19;101895.47;;;7.73;100.00
39265;BME280;42646;51.910;7.724;2023-04-08T09:16:48;101898.13;;;7.73;100.00
39265;BME280;42646;51.910;7.724;2023-04-08T09:19:16;101898.13;;;7.73;100.00
39265;BME280;42646;51.910;7.724;2023-04-08T09:21:45;101893.50;;;7.77;100.00
39265;BME280;42646;51.910;7.724;2023-04-08T09:24:31;101888.69;;;7.84;100.00
39265;BME280;42646;51.910;7.724;2023-04-08T09:27:08;101889.00;;;7.93;100.00
39265;BME280;42646;51.910;7.724;2023-04-08T09:29:36;101887.78;;;7.99;100.00
39265;BME280;42646;51.910;7.724;2023-04-08T09:32:05;101896.22;;;8.06;100.00
39265;BME280;42646;51.910;7.724;2023-04-08T09:34:34;101894.25;;;8.09;100.00
39265;BME280;42646;51.910;7.724;2023-04-08T09:37:03;101906.28;;;8.15;100.00
39265;BME280;42646;51.910;7.724;2023-04-08T09:39:30;101905.16;;;8.19;100.00
39265;BME280;42646;51.910;7.724;2023-04-08T09:42:24;101910.16;;;8.23;100.00
39265;BME280;42646;51.910;7.724;2023-04-08T09:44:52;101903.56;;;8.30;99.45
39265;BME280;42646;51.910;7.724;2023-04-08T09:47:26;101905.03;;;8.36;99.43
39265;BME280;42646;51.910;7.724;2023-04-08T09:50:00;101904.66;;;8.42;99.15
39265;BME280;42646;51.910;7.724;2023-04-08T09:52:32;101908.78;;;8.46;99.27
39265;BME280;42646;51.910;7.724;2023-04-08T09:55:01;101909.19;;;8.54;99.30
39265;BME280;42646;51.910;7.724;2023-04-08T09:57:36;101907.97;;;8.60;99.10
39265;BME280;42646;51.910;7.724;2023-04-08T10:00:08;101903.50;;;8.61;99.05
39265;BME280;42646;51.910;7.724;2023-04-08T10:02:46;101904.25;;;8.63;98.57
39265;BME280;42646;51.910;7.724;2023-04-08T10:05:17;101892.41;;;8.68;98.32
39265;BME280;42646;51.910;7.724;2023-04-08T10:07:47;101904.56;;;8.72;98.15
39265;BME280;42646;51.910;7.724;2023-04-08T10:10:15;101894.47;;;8.77;97.45
39265;BME280;42646;51.910;7.724;2023-04-08T10:12:43;101892.72;;;8.78;97.33
39265;BME280;42646;51.910;7.724;2023-04-08T10:15:23;101898.00;;;8.78;96.87
39265;BME280;42646;51.910;7.724;2023-04-08T10:17:51;101898.66;;;8.81;96.57
39265;BME280;42646;51.910;7.724;2023-04-08T10:20:43;101902.63;;;8.89;96.32
39265;BME280;42646;51.910;7.724;2023-04-08T10:23:14;101906.63;;;8.96;96.32
39265;BME280;42646;51.910;7.724;2023-04-08T10:25:43;101911.72;;;8.99;96.13
39265;BME280;42646;51.910;7.724;2023-04-08T10:28:24;101907.94;;;9.03;96.19
39265;BME280;42646;51.910;7.724;2023-04-08T10:30:55;101905.16;;;9.04;95.83
39265;BME280;42646;51.910;7.724;2023-04-08T10:33:30;101909.13;;;9.12;95.93
39265;BME280;42646;51.910;7.724;2023-04-08T10:36:08;101899.06;;;9.17;95.75
39265;BME280;42646;51.910;7.724;2023-04-08T10:38:38;101900.38;;;9.24;95.40
39265;BME280;42646;51.910;7.724;2023-04-08T10:41:09;101909.44;;;9.34;95.44
39265;BME280;42646;51.910;7.724;2023-04-08T10:43:37;101907.25;;;9.41;95.95
39265;BME280;42646;51.910;7.724;2023-04-08T10:46:09;101908.34;;;9.51;95.49
39265;BME280;42646;51.910;7.724;2023-04-08T10:48:38;101904.44;;;9.56;95.11
39265;BME280;42646;51.910;7.724;2023-04-08T10:51:09;101907.66;;;9.61;94.39
39265;BME280;42646;51.910;7.724;2023-04-08T10:53:38;101909.13;;;9.66;94.32
39265;BME280;42646;51.910;7.724;2023-04-08T10:56:09;101914.88;;;9.72;94.59
39265;BME280;42646;51.910;7.724;2023-04-08T10:58:47;101900.56;;;9.75;94.46
39265;BME280;42646;51.910;7.724;2023-04-08T11:01:15;101906.00;;;9.73;94.48
39265;BME280;42646;51.910;7.724;2023-04-08T11:03:44;101906.91;;;9.72;94.18
39265;BME280;42646;51.910;7.724;2023-04-08T11:06:12;101901.31;;;9.77;94.29
39265;BME280;42646;51.910;7.724;2023-04-08T11:08:45;101893.88;;;9.82;94.24
39265;BME280;42646;51.910;7.724;2023-04-08T11:11:15;101902.28;;;9.88;94.53
39265;BME280;42646;51.910;7.724;2023-04-08T11:13:49;101901.69;;;9.98;94.27
39265;BME280;42646;51.910;7.724;2023-04-08T11:16:20;101905.94;;;10.00;93.80
39265;BME280;42646;51.910;7.724;2023-04-08T11:18:49;101897.84;;;10.02;93.41
39265;BME280;42646;51.910;7.724;2023-04-08T11:21:17;101892.22;;;10.06;92.97
39265;BME280;42646;51.910;7.724;2023-04-08T11:23:48;101891.25;;;10.07;93.07
39265;BME280;42646;51.910;7.724;2023-04-08T11:26:17;101890.84;;;10.13;93.16
39265;BME280;42646;51.910;7.724;2023-04-08T11:28:45;101887.31;;;10.13;93.37
39265;BME280;42646;51.910;7.724;2023-04-08T11:31:14;101895.00;;;10.17;93.40
39265;BME280;42646;51.910;7.724;2023-04-08T11:33:44;101901.75;;;10.23;93.35
39265;BME280;42646;51.910;7.724;2023-04-08T11:36:13;101900.34;;;10.30;93.25
39265;BME280;42646;51.910;7.724;2023-04-08T11:39:10;101896.31;;;10.37;93.19
39265;BME280;42646;51.910;7.724;2023-04-08T11:41:38;101888.84;;;10.42;93.12
39265;BME280;42646;51.910;7.724;2023-04-08T11:44:07;101892.81;;;10.50;92.18
39265;BME280;42646;51.910;7.724;2023-04-08T11:46:35;101891.00;;;10.50;91.86
39265;BME280;42646;51.910;7.724;2023-04-08T11:49:05;101894.69;;;10.60;91.86
39265;BME280;42646;51.910;7.724;2023-04-08T11:51:36;101892.44;;;10.67;91.69
39265;BME280;42646;51.910;7.724;2023-04-08T11:54:29;101895.47;;;10.62;92.28
39265;BME280;42646;51.910;7.724;2023-04-08T11:56:57;101896.00;;;10.67;92.62
39265;BME280;42646;51.910;7.724;2023-04-08T11:59:28;101900.22;;;10.70;92.56
39265;BME280;42646;51.910;7.724;2023-04-08T12:01:56;101901.81;;;10.73;92.73
39265;BME280;42646;51.910;7.724;2023-04-08T12:04:26;101897.13;;;10.76;92.54
39265;BME280;42646;51.910;7.724;2023-04-08T12:06:55;101898.72;;;10.79;92.42
39265;BME280;42646;51.910;7.724;2023-04-08T12:09:24;101899.25;;;10.84;92.12
39265;BME280;42646;51.910;7.724;2023-04-08T12:11:53;101893.91;;;10.84;91.89
39265;BME280;42646;51.910;7.724;2023-04-08T12:14:22;101899.16;;;10.85;91.53
39265;BME280;42646;51.910;7.724;2023-04-08T12:16:54;101896.50;;;10.85;91.90
39265;BME280;42646;51.910;7.724;2023-04-08T12:19:22;101894.44;;;10.89;91.55
39265;BME280;42646;51.910;7.724;2023-04-08T12:21:51;101901.16;;;10.94;91.49
39265;BME280;42646;51.910;7.724;2023-04-08T12:24:19;101894.75;;;10.97;91.69
39265;BME280;42646;51.910;7.724;2023-04-08T12:26:48;101908.06;;;10.97;91.46
39265;BME280;42646;51.910;7.724;2023-04-08T12:29:19;101898.16;;;10.99;91.21
39265;BME280;42646;51.910;7.724;2023-04-08T12:31:47;101903.16;;;11.04;91.69
39265;BME280;42646;51.910;7.724;2023-04-08T12:34:15;101889.31;;;10.99;90.51
39265;BME280;42646;51.910;7.724;2023-04-08T12:36:43;101896.47;;;10.98;90.36
39265;BME280;42646;51.910;7.724;2023-04-08T12:39:11;101914.00;;;11.01;90.36
39265;BME280;42646;51.910;7.724;2023-04-08T12:41:39;101907.53;;;11.05;90.95
39265;BME280;42646;51.910;7.724;2023-04-08T12:44:09;101906.34;;;11.09;90.98
39265;BME280;42646;51.910;7.724;2023-04-08T12:46:38;101902.59;;;11.11;91.10
39265;BME280;42646;51.910;7.724;2023-04-08T12:49:08;101906.09;;;11.12;90.83
39265;BME280;42646;51.910;7.724;2023-04-08T12:51:36;101903.44;;;11.12;90.86
39265;BME280;42646;51.910;7.724;2023-04-08T12:54:05;101908.88;;;11.10;90.53
39265;BME280;42646;51.910;7.724;2023-04-08T12:56:34;101912.59;;;11.08;90.84
39265;BME280;42646;51.910;7.724;2023-04-08T12:59:01;101900.25;;;11.07;90.90
39265;BME280;42646;51.910;7.724;2023-04-08T13:01:29;101906.75;;;11.03;90.67
39265;BME280;42646;51.910;7.724;2023-04-08T13:04:01;101902.41;;;11.02;91.17